sensor_id;sensor_type;location;lat;lon;timestamp;pressure;altitude;pressure_sealevel;temperature;humidity
31162;BME280;17796;49.296;-117.656;2023-01-10T00:07:41;95300;;;1.90994;76.70996
31162;BME280;17796;49.296;-117.656;2023-01-10T00:22:45;95300;;;2.07571;75.29224
31162;BME280;17796;49.296;-117.656;2023-01-10T00:37:49;95300;;;2.11128;74.66927
31162;BME280;17796;49.296;-117.656;2023-01-10T00:52:54;95400;;;1.22463;80.21134
31162;BME280;17796;49.296;-117.656;2023-01-10T01:07:58;95400;;;1.86866;76.30016
31162;BME280;17796;49.296;-117.656;2023-01-10T01:23:02;95400;;;1.7086;76.72986
31162;BME280;17796;49.296;-117.656;2023-01-10T01:38:05;95400;;;1.97727;75.67331
31162;BME280;17796;49.296;-117.656;2023-01-10T01:53:10;95400;;;1.87691;75.5436
31162;BME280;17796;49.296;-117.656;2023-01-10T02:08:18;95400;;;1.16366;78.61263
31162;BME280;17796;49.296;-117.656;2023-01-10T02:23:28;95400;;;0.7794;79.48324
31162;BME280;17796;49.296;-117.656;2023-01-10T02:38:52;95400;;;0.20144;80.72535
31162;BME280;17796;49.296;-117.656;2023-01-10T02:54:01;95400;;;0.40087;80.05757
31162;BME280;17796;49.296;-117.656;2023-01-10T03:09:09;95400;;;0.94104;77.41457
31162;BME280;17796;49.296;-117.656;2023-01-10T03:24:19;95500;;;-0.2441;81.61753
31162;BME280;17796;49.296;-117.656;2023-01-10T03:39:29;95500;;;0.1827;80.88718
31162;BME280;17796;49.296;-117.656;2023-01-10T03:54:41;95500;;;1.01472;76.22791
31162;BME280;17796;49.296;-117.656;2023-01-10T04:09:46;95500;;;0.72796;76.97874
31162;BME280;17796;49.296;-117.656;2023-01-10T04:24:50;95500;;;0.93437;76.03989
31162;BME280;17796;49.296;-117.656;2023-01-10T04:39:53;95500;;;1.01631;75.5106
31162;BME280;17796;49.296;-117.656;2023-01-10T04:54:57;95500;;;-0.0831;81.01263
31162;BME280;17796;49.296;-117.656;2023-01-10T05:10:00;95500;;;0.22176;81.10405
31162;BME280;17796;49.296;-117.656;2023-01-10T05:25:04;95600;;;1.00329;76.13925
31162;BME280;17796;49.296;-117.656;2023-01-10T05:40:09;95600;;;0.70192;77.5343
31162;BME280;17796;49.296;-117.656;2023-01-10T05:55:13;95600;;;0.57045;78.48417
31162;BME280;17796;49.296;-117.656;2023-01-10T06:10:17;95600;;;0.09855;80.03264
31162;BME280;17796;49.296;-117.656;2023-01-10T06:25:21;95600;;;-0.4845;83.11752
31162;BME280;17796;49.296;-117.656;2023-01-10T06:40:26;95600;;;-0.78396;86.00067
31162;BME280;17796;49.296;-117.656;2023-01-10T06:55:30;95600;;;0.52313;78.80208
31162;BME280;17796;49.296;-117.656;2023-01-10T07:10:36;95600;;;-0.49561;83.27424
31162;BME280;17796;49.296;-117.656;2023-01-10T07:25:42;95600;;;0.66063;76.80836
31162;BME280;17796;49.296;-117.656;2023-01-10T07:40:46;95600;;;0.44088;78.3514
31162;BME280;17796;49.296;-117.656;2023-01-10T07:55:49;95700;;;0.16396;81.40914
31162;BME280;17796;49.296;-117.656;2023-01-10T08:10:54;95700;;;-0.86938;85.33302
31162;BME280;17796;49.296;-117.656;2023-01-10T08:25:58;95700;;;1.03282;75.74213
31162;BME280;17796;49.296;-117.656;2023-01-10T08:41:05;95700;;;-0.54198;84.45593
31162;BME280;17796;49.296;-117.656;2023-01-10T08:56:09;95700;;;0.48915;79.33431
31162;BME280;17796;49.296;-117.656;2023-01-10T09:11:15;95700;;;0.80513;77.47839
31162;BME280;17796;49.296;-117.656;2023-01-10T09:26:20;95700;;;-0.01006;81.18926
31162;BME280;17796;49.296;-117.656;2023-01-10T09:41:29;95800;;;0.33545;79.41199
31162;BME280;17796;49.296;-117.656;2023-01-10T09:56:52;95800;;;0.48312;79.3665
31162;BME280;17796;49.296;-117.656;2023-01-10T10:12:05;95800;;;0.37006;77.97843
31162;BME280;17796;49.296;-117.656;2023-01-10T10:27:23;95800;;;-1.04816;86.56249
31162;BME280;17796;49.296;-117.656;2023-01-10T10:42:37;95800;;;0.58791;79.21835
31162;BME280;17796;49.296;-117.656;2023-01-10T10:57:45;95800;;;0.94581;77.72151
31162;BME280;17796;49.296;-117.656;2023-01-10T11:12:50;95800;;;0.6419;78.80818
31162;BME280;17796;49.296;-117.656;2023-01-10T11:27:55;95800;;;0.41071;80.45727
31162;BME280;17796;49.296;-117.656;2023-01-10T11:43:20;95800;;;-0.35747;86.50138
31162;BME280;17796;49.296;-117.656;2023-01-10T11:58:31;95800;;;0.86261;79.46959
31162;BME280;17796;49.296;-117.656;2023-01-10T12:13:44;95700;;;-0.75633;87.83575
31162;BME280;17796;49.296;-117.656;2023-01-10T12:28:51;95700;;;0.93469;77.77518
31162;BME280;17796;49.296;-117.656;2023-01-10T12:43:57;95700;;;1.01091;77.15289
31162;BME280;17796;49.296;-117.656;2023-01-10T12:59:03;95700;;;0.2424;80.52755
31162;BME280;17796;49.296;-117.656;2023-01-10T13:14:09;95700;;;-0.04086;83.4162
31162;BME280;17796;49.296;-117.656;2023-01-10T13:29:19;95700;;;0.6473;80.27359
31162;BME280;17796;49.296;-117.656;2023-01-10T13:44:25;95700;;;0.42278;81.55064
31162;BME280;17796;49.296;-117.656;2023-01-10T14:00:04;95700;;;0.09982;83.13167
31162;BME280;17796;49.296;-117.656;2023-01-10T14:15:23;95800;;;0.74098;79.75826
31162;BME280;17796;49.296;-117.656;2023-01-10T14:30:30;95800;;;0.45326;80.61998
31162;BME280;17796;49.296;-117.656;2023-01-10T14:45:38;95800;;;-0.7341;87.54492
31162;BME280;17796;49.296;-117.656;2023-01-10T15:00:46;95800;;;0.68731;79.82944
31162;BME280;17796;49.296;-117.656;2023-01-10T15:15:51;95800;;;0.90484;78.46177
31162;BME280;17796;49.296;-117.656;2023-01-10T15:31:03;95800;;;0.39769;80.28119
31162;BME280;17796;49.296;-117.656;2023-01-10T15:46:15;95800;;;0.64253;80.28951
31162;BME280;17796;49.296;-117.656;2023-01-10T16:01:21;95800;;;1.16683;77.00314
31162;BME280;17796;49.296;-117.656;2023-01-10T16:16:25;95900;;;1.11031;77.89037
31162;BME280;17796;49.296;-117.656;2023-01-10T16:31:33;95900;;;0.06044;83.39448
31162;BME280;17796;49.296;-117.656;2023-01-10T16:46:38;95900;;;0.89595;80.17288
31162;BME280;17796;49.296;-117.656;2023-01-10T17:01:45;95900;;;1.44502;76.52474
31162;BME280;17796;49.296;-117.656;2023-01-10T17:16:53;95900;;;1.42438;77.28461
31162;BME280;17796;49.296;-117.656;2023-01-10T17:31:56;95900;;;1.36055;77.96891
31162;BME280;17796;49.296;-117.656;2023-01-10T17:47:00;95900;;;1.86326;75.98141
31162;BME280;17796;49.296;-117.656;2023-01-10T18:02:04;95900;;;1.89946;76.95589
31162;BME280;17796;49.296;-117.656;2023-01-10T18:17:11;95900;;;2.3104;75.41737
31162;BME280;17796;49.296;-117.656;2023-01-10T18:32:15;95900;;;2.18019;77.43193
31162;BME280;17796;49.296;-117.656;2023-01-10T18:47:19;95900;;;1.23702;80.97316
31162;BME280;17796;49.296;-117.656;2023-01-10T19:02:23;95800;;;1.244;82.32501
31162;BME280;17796;49.296;-117.656;2023-01-10T19:17:28;95800;;;2.94618;75.72666
31162;BME280;17796;49.296;-117.656;2023-01-10T19:32:32;95800;;;3.1942;76.65688
31162;BME280;17796;49.296;-117.656;2023-01-10T19:47:35;95800;;;3.15641;76.85705
31162;BME280;17796;49.296;-117.656;2023-01-10T20:02:39;95800;;;3.18499;76.37516
31162;BME280;17796;49.296;-117.656;2023-01-10T20:17:43;95800;;;3.43333;75.07583
31162;BME280;17796;49.296;-117.656;2023-01-10T20:32:47;95800;;;3.91446;74.90258
31162;BME280;17796;49.296;-117.656;2023-01-10T20:47:51;95700;;;3.87222;76.17265
31162;BME280;17796;49.296;-117.656;2023-01-10T21:02:54;95700;;;3.98592;75.61478
31162;BME280;17796;49.296;-117.656;2023-01-10T21:17:58;95700;;;3.61276;74.55129
31162;BME280;17796;49.296;-117.656;2023-01-10T21:33:02;95700;;;3.63309;72.42452
31162;BME280;17796;49.296;-117.656;2023-01-10T21:48:06;95700;;;4.06404;71.97892
31162;BME280;17796;49.296;-117.656;2023-01-10T22:03:10;95700;;;3.16784;74.96461
31162;BME280;17796;49.296;-117.656;2023-01-10T22:18:14;95700;;;3.21961;75.26645
31162;BME280;17796;49.296;-117.656;2023-01-10T22:33:18;95700;;;3.82649;72.60018
31162;BME280;17796;49.296;-117.656;2023-01-10T22:48:21;95700;;;3.46287;73.89366
31162;BME280;17796;49.296;-117.656;2023-01-10T23:03:25;95700;;;3.22564;75.79002
31162;BME280;17796;49.296;-117.656;2023-01-10T23:18:29;95700;;;3.35045;74.28638
31162;BME280;17796;49.296;-117.656;2023-01-10T23:33:33;95700;;;2.40218;77.89195
31162;BME280;17796;49.296;-117.656;2023-01-10T23:48:37;95700;;;3.04081;75.88915
